createdAt,value
2022-08-19T00:01:29.115Z,96778.56
2022-08-19T00:03:59.604Z,96771.75
2022-08-19T00:06:26.733Z,96763.25
2022-08-19T00:08:53.273Z,96756.09
2022-08-19T00:11:25.492Z,96759.69
2022-08-19T00:13:52.985Z,96769.28
2022-08-19T00:16:19.775Z,96768.84
2022-08-19T00:18:51.924Z,96769.16
2022-08-19T00:21:18.557Z,96770.00
2022-08-19T00:23:45.087Z,96779.25
2022-08-19T00:26:12.157Z,96797.69
2022-08-19T00:28:40.104Z,96812.84
2022-08-19T00:31:08.524Z,96823.03
2022-08-19T00:33:35.408Z,96839.84
2022-08-19T00:36:02.970Z,96836.56
2022-08-19T00:38:37.361Z,96827.22
2022-08-19T00:41:04.939Z,96826.00
2022-08-19T00:43:31.487Z,96825.91
2022-08-19T00:45:59.510Z,96831.13
2022-08-19T00:48:26.129Z,96841.88
2022-08-19T00:50:54.554Z,96845.47
2022-08-19T00:53:25.042Z,96851.47
2022-08-19T00:55:54.107Z,96847.88
2022-08-19T00:58:25.463Z,96839.47
2022-08-19T01:00:52.030Z,96838.53
2022-08-19T01:03:21.438Z,96836.25
2022-08-19T01:05:49.581Z,96831.09
2022-08-19T01:08:18.022Z,96842.19
2022-08-19T01:10:47.961Z,96846.63
2022-08-19T01:13:16.026Z,96835.19
2022-08-19T01:15:45.902Z,96841.97
2022-08-19T01:18:15.033Z,96842.38
2022-08-19T01:20:43.431Z,96853.25
2022-08-19T01:23:11.661Z,96865.69
2022-08-19T01:25:44.035Z,96866.53
2022-08-19T01:28:17.018Z,96866.84
2022-08-19T01:30:44.429Z,96862.88
2022-08-19T01:33:17.567Z,96846.88
2022-08-19T01:35:44.157Z,96844.03
2022-08-19T01:38:21.965Z,96844.91
2022-08-19T01:40:48.550Z,96850.47
2022-08-19T01:43:15.218Z,96856.06
2022-08-19T01:45:42.069Z,96862.09
2022-08-19T01:48:09.206Z,96874.78
2022-08-19T01:50:36.071Z,96876.00
2022-08-19T01:53:06.671Z,96869.53
2022-08-19T01:55:41.364Z,96866.66
2022-08-19T01:58:13.160Z,96864.22
2022-08-19T02:00:40.280Z,96856.16
2022-08-19T02:03:06.813Z,96857.84
2022-08-19T02:05:33.563Z,96861.00
2022-08-19T02:08:00.105Z,96849.38
2022-08-19T02:10:26.646Z,96838.50
2022-08-19T02:12:54.738Z,96833.78
2022-08-19T02:15:21.995Z,96839.06
2022-08-19T02:17:49.246Z,96841.97
2022-08-19T02:20:16.300Z,96845.59
2022-08-19T02:22:43.831Z,96827.97
2022-08-19T02:25:11.106Z,96820.72
2022-08-19T02:27:37.704Z,96817.25
2022-08-19T02:30:08.449Z,96829.69
2022-08-19T02:32:44.508Z,96841.06
2022-08-19T02:35:12.819Z,96850.41
2022-08-19T02:37:39.499Z,96857.28
2022-08-19T02:40:12.412Z,96856.50
2022-08-19T02:42:39.519Z,96846.38
2022-08-19T02:45:08.121Z,96837.88
2022-08-19T02:47:35.099Z,96838.88
2022-08-19T02:50:03.282Z,96831.50
2022-08-19T02:52:29.795Z,96836.38
2022-08-19T02:54:56.310Z,96842.00
2022-08-19T02:57:22.810Z,96839.25
2022-08-19T02:59:49.318Z,96840.81
2022-08-19T03:02:17.351Z,96838.34
2022-08-19T03:04:43.886Z,96837.91
2022-08-19T03:07:13.490Z,96834.31
2022-08-19T03:09:40.255Z,96831.94
2022-08-19T03:12:07.287Z,96839.91
2022-08-19T03:14:34.530Z,96847.81
2022-08-19T03:17:01.398Z,96826.53
2022-08-19T03:19:29.334Z,96840.63
2022-08-19T03:21:55.931Z,96842.22
2022-08-19T03:24:22.530Z,96843.41
2022-08-19T03:26:51.560Z,96845.88
2022-08-19T03:29:30.448Z,96849.50
2022-08-19T03:31:57.874Z,96851.91
2022-08-19T03:34:27.039Z,96853.59
2022-08-19T03:36:55.776Z,96867.63
2022-08-19T03:39:22.683Z,96881.22
2022-08-19T03:41:50.345Z,96890.44
2022-08-19T03:44:37.401Z,96885.22
2022-08-19T03:47:04.579Z,96888.75
2022-08-19T03:49:32.699Z,96885.50
2022-08-19T03:52:00.815Z,96888.31
2022-08-19T03:54:28.273Z,96882.25
2022-08-19T03:56:56.627Z,96879.03
2022-08-19T03:59:25.812Z,96876.66
2022-08-19T04:01:52.723Z,96875.09
2022-08-19T04:04:19.977Z,96874.59
2022-08-19T04:06:46.849Z,96876.59
2022-08-19T04:09:14.780Z,96889.81
2022-08-19T04:11:45.150Z,96899.13
2022-08-19T04:14:13.275Z,96909.22
2022-08-19T04:16:39.798Z,96916.88
2022-08-19T04:19:07.338Z,96924.53
2022-08-19T04:21:34.793Z,96930.78
2022-08-19T04:24:02.370Z,96925.53
2022-08-19T04:26:34.617Z,96934.69
2022-08-19T04:29:01.926Z,96933.41
2022-08-19T04:31:31.156Z,96939.44
2022-08-19T04:34:00.383Z,96945.53
2022-08-19T04:36:30.227Z,96958.47
2022-08-19T04:38:59.141Z,96961.72
2022-08-19T04:41:26.701Z,96968.44
2022-08-19T04:43:54.561Z,96954.63
2022-08-19T04:46:39.632Z,96954.53
2022-08-19T04:49:12.996Z,96934.78
2022-08-19T04:51:41.997Z,96930.41
2022-08-19T04:54:08.516Z,96935.66
2022-08-19T04:56:35.432Z,96939.69
2022-08-19T04:59:03.594Z,96943.41
2022-08-19T05:01:31.121Z,96947.78
2022-08-19T05:03:59.106Z,96954.31
2022-08-19T05:06:25.674Z,96963.97
2022-08-19T05:08:52.280Z,96963.66
2022-08-19T05:11:26.284Z,96968.03
2022-08-19T05:13:53.514Z,96963.91
2022-08-19T05:16:23.565Z,96973.44
2022-08-19T05:18:50.518Z,96965.38
2022-08-19T05:21:20.630Z,96970.38
2022-08-19T05:23:47.134Z,96970.56
2022-08-19T05:26:13.663Z,96981.88
2022-08-19T05:28:40.180Z,96985.47
2022-08-19T05:31:06.742Z,96976.97
2022-08-19T05:33:34.619Z,96982.53
2022-08-19T05:36:02.257Z,96984.31
2022-08-19T05:38:28.852Z,96996.81
2022-08-19T05:40:55.383Z,96985.94
2022-08-19T05:43:21.884Z,96983.13
2022-08-19T05:45:48.457Z,96978.81
2022-08-19T05:48:15.042Z,96987.34
2022-08-19T05:50:43.181Z,96984.59
2022-08-19T05:53:10.082Z,96988.53
2022-08-19T05:55:37.068Z,96985.25
2022-08-19T05:58:03.820Z,96982.38
2022-08-19T06:00:30.378Z,96978.88
2022-08-19T06:02:57.014Z,96973.38
2022-08-19T06:05:23.569Z,96972.66
2022-08-19T06:07:51.483Z,96974.31
2022-08-19T06:10:18.214Z,96980.84
2022-08-19T06:12:44.729Z,96976.50
2022-08-19T06:15:14.060Z,96963.81
2022-08-19T06:17:41.357Z,96966.56
2022-08-19T06:20:10.499Z,96969.53
2022-08-19T06:22:38.805Z,96964.56
2022-08-19T06:25:07.806Z,96964.72
2022-08-19T06:27:34.331Z,96961.84
2022-08-19T06:30:01.706Z,96958.25
2022-08-19T06:32:28.240Z,96955.19
2022-08-19T06:34:54.751Z,96964.09
2022-08-19T06:37:21.591Z,96969.38
2022-08-19T06:39:48.742Z,96970.28
2022-08-19T06:42:17.059Z,96967.06
2022-08-19T06:44:48.880Z,96969.50
2022-08-19T06:47:23.901Z,96974.47
2022-08-19T06:49:56.241Z,96983.28
2022-08-19T06:52:27.602Z,96987.78
2022-08-19T06:54:56.746Z,96992.25
2022-08-19T06:57:25.525Z,96990.72
2022-08-19T06:59:52.091Z,96992.19
2022-08-19T07:02:19.301Z,96992.94
2022-08-19T07:04:45.861Z,96984.34
2022-08-19T07:07:21.036Z,96995.31
2022-08-19T07:09:58.444Z,96984.59
2022-08-19T07:12:30.577Z,96969.38
2022-08-19T07:14:58.117Z,96962.56
2022-08-19T07:17:24.634Z,96964.16
2022-08-19T07:19:51.461Z,96961.81
2022-08-19T07:22:20.803Z,96965.59
2022-08-19T07:24:51.561Z,96965.66
2022-08-19T07:27:19.054Z,96964.50
2022-08-19T07:29:57.201Z,96972.41
2022-08-19T07:32:25.075Z,96972.41
2022-08-19T07:34:52.069Z,96963.31
2022-08-19T07:37:18.604Z,96979.00
2022-08-19T07:39:45.347Z,96977.00
2022-08-19T07:42:13.342Z,96995.47
2022-08-19T07:47:58.758Z,97007.22
2022-08-19T07:49:59.794Z,97005.22
2022-08-19T07:52:26.353Z,97005.97
2022-08-19T07:54:52.867Z,97007.13
2022-08-19T07:57:19.400Z,97003.09
2022-08-19T07:59:45.987Z,97000.22
2022-08-19T08:02:13.880Z,97001.50
2022-08-19T08:04:40.410Z,96996.69
2022-08-19T08:07:08.725Z,97000.38
2022-08-19T08:09:39.461Z,97002.47
2022-08-19T08:12:32.549Z,96999.78
2022-08-19T08:14:59.702Z,97001.09
2022-08-19T08:17:31.004Z,96991.47
2022-08-19T08:20:15.854Z,96993.19
2022-08-19T08:22:44.459Z,96994.09
2022-08-19T08:25:14.199Z,96990.50
2022-08-19T08:27:44.574Z,96989.97
2022-08-19T08:30:19.790Z,96988.38
2022-08-19T08:32:47.669Z,96992.41
2022-08-19T08:35:20.074Z,96982.84
2022-08-19T08:37:47.259Z,96974.13
2022-08-19T08:40:21.585Z,96981.41
2022-08-19T08:42:55.502Z,96970.97
2022-08-19T08:45:24.336Z,96977.53
2022-08-19T08:47:54.898Z,96966.78
2022-08-19T08:50:26.575Z,96962.06
2022-08-19T08:52:56.248Z,96965.41
2022-08-19T08:55:25.110Z,96968.69
2022-08-19T08:57:57.398Z,96965.16
2022-08-19T09:00:27.320Z,96961.06
2022-08-19T09:02:56.201Z,96954.69
2022-08-19T09:05:26.904Z,96935.72
2022-08-19T09:08:12.048Z,96937.75
2022-08-19T09:10:45.109Z,96945.06
2022-08-19T09:13:18.986Z,96938.63
2022-08-19T09:15:49.107Z,96946.28
2022-08-19T09:18:19.122Z,96960.78
2022-08-19T09:20:46.629Z,96964.00
2022-08-19T09:23:13.169Z,96965.63
2022-08-19T09:25:39.772Z,96962.78
2022-08-19T09:28:21.936Z,96965.19
2022-08-19T09:30:49.325Z,96970.88
2022-08-19T09:33:17.203Z,96975.69
2022-08-19T09:35:49.914Z,96967.63
2022-08-19T09:38:20.304Z,96970.84
2022-08-19T09:40:47.645Z,96974.91
2022-08-19T09:43:14.167Z,96971.69
2022-08-19T09:45:41.073Z,96972.84
2022-08-19T09:48:07.645Z,96967.13
2022-08-19T09:50:37.531Z,96971.47
2022-08-19T09:53:04.843Z,96978.22
2022-08-19T09:55:33.412Z,96987.19
2022-08-19T09:58:01.752Z,96993.97
2022-08-19T10:00:28.405Z,96998.41
2022-08-19T10:02:54.911Z,96998.84
2022-08-19T10:05:23.235Z,97002.13
2022-08-19T10:07:55.009Z,97014.00
2022-08-19T10:10:23.794Z,97009.16
2022-08-19T10:12:51.221Z,97018.81
2022-08-19T10:15:17.869Z,97019.22
2022-08-19T10:17:56.241Z,97020.03
2022-08-19T10:20:22.919Z,97019.19
2022-08-19T10:22:49.504Z,97019.94
2022-08-19T10:25:19.964Z,97010.25
2022-08-19T10:27:51.291Z,97010.25
2022-08-19T10:30:18.338Z,97003.84
2022-08-19T10:32:46.990Z,97003.38
2022-08-19T10:35:14.516Z,97007.84
2022-08-19T10:37:55.975Z,96999.84
2022-08-19T10:40:26.718Z,97003.50
2022-08-19T10:42:53.402Z,96994.25
2022-08-19T10:45:20.090Z,96994.22
2022-08-19T10:47:46.652Z,96987.41
2022-08-19T10:50:13.174Z,96984.56
2022-08-19T10:52:40.451Z,96986.97
2022-08-19T10:55:18.928Z,96983.38
2022-08-19T10:58:01.711Z,96989.41
2022-08-19T11:00:29.458Z,96986.97
2022-08-19T11:02:55.974Z,96977.28
2022-08-19T11:05:24.151Z,96982.06
2022-08-19T11:07:51.451Z,96978.84
2022-08-19T11:10:21.411Z,96971.53
2022-08-19T11:12:50.183Z,96968.13
2022-08-19T11:15:16.750Z,96972.88
2022-08-19T11:17:43.566Z,96973.38
2022-08-19T11:20:11.678Z,96969.59
2022-08-19T11:22:41.577Z,96972.31
2022-08-19T11:25:10.325Z,96973.16
2022-08-19T11:27:39.600Z,96975.63
2022-08-19T11:30:13.117Z,96983.72
2022-08-19T11:32:39.941Z,96980.09
2022-08-19T11:35:07.244Z,96970.84
2022-08-19T11:37:33.791Z,96969.63
2022-08-19T11:40:00.379Z,96964.38
2022-08-19T11:42:26.969Z,96974.47
2022-08-19T11:44:53.542Z,96978.09
2022-08-19T11:47:21.495Z,96980.06
2022-08-19T11:49:48.201Z,96977.25
2022-08-19T11:52:14.973Z,96976.84
2022-08-19T11:54:41.502Z,96972.44
2022-08-19T11:57:08.032Z,96964.34
2022-08-19T11:59:34.530Z,96968.81
2022-08-19T12:02:01.066Z,96959.97
2022-08-19T12:04:28.989Z,96956.34
2022-08-19T12:06:55.525Z,96953.13
2022-08-19T12:09:22.032Z,96953.53
2022-08-19T12:11:48.598Z,96953.16
2022-08-19T12:14:15.219Z,96942.66
2022-08-19T12:16:48.631Z,96937.41
2022-08-19T12:19:21.956Z,96934.56
2022-08-19T12:21:51.109Z,96943.41
2022-08-19T12:24:18.422Z,96941.84
2022-08-19T12:26:52.765Z,96942.22
2022-08-19T12:29:23.332Z,96951.50
2022-08-19T12:31:50.314Z,96953.16
2022-08-19T12:34:16.861Z,96945.09
2022-08-19T12:36:43.377Z,96945.88
2022-08-19T12:39:11.263Z,96947.88
2022-08-19T12:41:51.397Z,96940.63
2022-08-19T12:44:24.865Z,96948.22
2022-08-19T12:46:56.277Z,96952.25
2022-08-19T12:49:43.534Z,96946.66
2022-08-19T12:52:09.830Z,96953.53
2022-08-19T12:54:38.394Z,96953.09
2022-08-19T12:57:08.689Z,96949.81
2022-08-19T12:59:35.228Z,96946.56
2022-08-19T13:02:01.734Z,96947.44
2022-08-19T13:04:28.265Z,96949.81
2022-08-19T13:06:54.778Z,96954.69
2022-08-19T13:09:21.330Z,96953.50
2022-08-19T13:11:49.182Z,96953.94
2022-08-19T13:14:15.731Z,96962.81
2022-08-19T13:16:42.243Z,96956.75
2022-08-19T13:19:08.791Z,96969.19
2022-08-19T13:21:35.379Z,96966.44
2022-08-19T13:24:03.657Z,96963.53
2022-08-19T13:26:30.219Z,96959.09
2022-08-19T13:28:58.123Z,96961.91
2022-08-19T13:31:27.506Z,96964.28
2022-08-19T13:33:54.021Z,96964.22
2022-08-19T13:36:20.565Z,96965.06
2022-08-19T13:38:47.104Z,96968.19
2022-08-19T13:41:15.015Z,96968.06
2022-08-19T13:43:41.613Z,96972.00
2022-08-19T13:46:12.038Z,96981.25
2022-08-19T13:48:38.587Z,96983.19
2022-08-19T13:51:06.168Z,96978.41
2022-08-19T13:53:32.739Z,96970.41
2022-08-19T13:55:59.235Z,96975.31
2022-08-19T13:58:25.885Z,96979.38
2022-08-19T14:00:52.459Z,96969.72
2022-08-19T14:03:20.486Z,96965.59
2022-08-19T14:05:47.062Z,96970.06
2022-08-19T14:08:13.600Z,96968.78
2022-08-19T14:10:40.338Z,96965.22
2022-08-19T14:13:06.891Z,96972.53
2022-08-19T14:15:33.413Z,96970.22
2022-08-19T14:18:00.182Z,96969.47
2022-08-19T14:20:28.185Z,96969.09
2022-08-19T14:22:55.233Z,96963.50
2022-08-19T14:25:24.448Z,96967.97
2022-08-19T14:27:51.309Z,96961.13
2022-08-19T14:30:22.040Z,96966.84
2022-08-19T14:32:48.658Z,96956.75
2022-08-19T14:35:16.902Z,96957.56
2022-08-19T14:37:46.407Z,96959.97
2022-08-19T14:40:14.441Z,96967.63
2022-08-19T14:42:41.094Z,96961.19
2022-08-19T14:45:09.419Z,96960.78
2022-08-19T14:47:35.922Z,96962.81
2022-08-19T14:50:07.800Z,96957.16
2022-08-19T14:52:37.040Z,96948.22
2022-08-19T14:55:07.530Z,96942.66
2022-08-19T14:57:34.377Z,96942.66
2022-08-19T15:00:01.008Z,96944.25
2022-08-19T15:02:34.925Z,96947.91
2022-08-19T15:05:02.082Z,96951.13
2022-08-19T15:07:29.510Z,96941.84
2022-08-19T15:09:56.644Z,96939.81
2022-08-19T15:12:25.305Z,96945.47
2022-08-19T15:14:54.601Z,96942.66
2022-08-19T15:17:43.369Z,96938.19
2022-08-19T15:20:11.706Z,96937.00
2022-08-19T15:22:38.356Z,96937.00
2022-08-19T15:25:06.548Z,96947.50
2022-08-19T15:27:34.635Z,96952.31
2022-08-19T15:30:01.780Z,96949.88
2022-08-19T15:32:28.582Z,96963.59
2022-08-19T15:34:55.168Z,96964.81
2022-08-19T15:37:21.699Z,96962.00
2022-08-19T15:39:48.337Z,96966.81
2022-08-19T15:42:14.903Z,96959.50
2022-08-19T15:45:00.718Z,96963.50
2022-08-19T15:47:29.440Z,96963.50
2022-08-19T15:50:04.740Z,96965.09
2022-08-19T15:52:31.265Z,96949.41
2022-08-19T15:54:59.257Z,96943.38
2022-08-19T15:57:25.779Z,96942.59
2022-08-19T15:59:52.363Z,96935.75
2022-08-19T16:02:23.805Z,96936.59
2022-08-19T16:04:58.952Z,96942.25
2022-08-19T16:07:25.462Z,96937.38
2022-08-19T16:09:51.997Z,96926.09
2022-08-19T16:12:18.556Z,96936.16
2022-08-19T16:14:45.294Z,96938.19
2022-08-19T16:17:11.806Z,96940.59
2022-08-19T16:19:39.693Z,96942.22
2022-08-19T16:22:06.850Z,96944.66
2022-08-19T16:24:33.408Z,96943.88
2022-08-19T16:26:59.973Z,96949.91
2022-08-19T16:29:34.775Z,96947.06
2022-08-19T16:32:08.415Z,96950.66
2022-08-19T16:34:34.959Z,96951.41
2022-08-19T16:37:02.837Z,96950.97
2022-08-19T16:39:29.757Z,96945.75
2022-08-19T16:41:56.359Z,96940.50
2022-08-19T16:44:22.951Z,96941.56
2022-08-19T16:46:58.341Z,96949.63
2022-08-19T16:49:54.129Z,96960.91
2022-08-19T16:52:15.059Z,96954.44
2022-08-19T16:54:41.964Z,96958.44
2022-08-19T16:57:11.915Z,96962.44
2022-08-19T16:59:39.112Z,96961.53
2022-08-19T17:02:10.683Z,96971.94
2022-08-19T17:04:37.247Z,96963.84
2022-08-19T17:07:03.798Z,96956.63
2022-08-19T17:09:32.289Z,96965.06
2022-08-19T17:11:58.886Z,96976.69
2022-08-19T17:14:25.423Z,96981.50
2022-08-19T17:16:51.960Z,96979.03
2022-08-19T17:19:18.465Z,96985.81
2022-08-19T17:21:45.075Z,96989.72
2022-08-19T17:24:11.672Z,96993.31
2022-08-19T17:26:39.572Z,96992.41
2022-08-19T17:29:06.241Z,96994.00
2022-08-19T17:31:33.128Z,97002.41
2022-08-19T17:34:00.448Z,97011.97
2022-08-19T17:36:29.325Z,97006.34
2022-08-19T17:38:58.225Z,97011.34
2022-08-19T17:41:26.083Z,97003.69
2022-08-19T17:43:54.273Z,97002.50
2022-08-19T17:46:21.292Z,97011.28
2022-08-19T17:48:51.482Z,97019.31
2022-08-19T17:51:22.109Z,97020.09
2022-08-19T17:53:50.136Z,97028.84
2022-08-19T17:56:16.864Z,97040.00
2022-08-19T17:58:44.161Z,97042.34
2022-08-19T18:01:17.205Z,97047.94
2022-08-19T18:03:47.483Z,97057.63
2022-08-19T18:06:14.682Z,97058.41
2022-08-19T18:08:41.522Z,97057.56
2022-08-19T18:11:09.045Z,97050.38
2022-08-19T18:13:36.287Z,97056.34
2022-08-19T18:16:04.131Z,97059.09
2022-08-19T18:18:32.022Z,97061.47
2022-08-19T18:20:58.562Z,97069.00
2022-08-19T18:23:41.320Z,97066.16
2022-08-19T18:26:11.522Z,97058.97
2022-08-19T18:28:38.185Z,97056.59
2022-08-19T18:31:04.885Z,97063.72
2022-08-19T18:33:32.811Z,97060.56
2022-08-19T18:36:10.802Z,97058.19
2022-08-19T18:38:37.316Z,97056.06
2022-08-19T18:41:04.677Z,97052.50
2022-08-19T18:43:31.185Z,97058.34
2022-08-19T18:45:57.716Z,97059.16
2022-08-19T18:48:27.132Z,97064.31
2022-08-19T18:50:57.002Z,97070.72
2022-08-19T18:53:24.597Z,97065.81
2022-08-19T18:55:51.580Z,97074.13
2022-08-19T18:58:18.081Z,97071.16
2022-08-19T19:00:44.663Z,97067.13
2022-08-19T19:03:11.252Z,97071.91
2022-08-19T19:05:37.870Z,97069.91
2022-08-19T19:08:05.887Z,97073.53
2022-08-19T19:10:32.996Z,97083.16
2022-08-19T19:12:59.525Z,97076.00
2022-08-19T19:15:26.061Z,97088.81
2022-08-19T19:17:52.922Z,97088.75
2022-08-19T19:20:19.452Z,97091.56
2022-08-19T19:22:46.043Z,97101.59
2022-08-19T19:25:13.890Z,97106.41
2022-08-19T19:27:40.427Z,97111.97
2022-08-19T19:30:10.510Z,97117.13
2022-08-19T19:32:39.275Z,97123.06
2022-08-19T19:35:07.748Z,97119.84
2022-08-19T19:37:34.275Z,97122.22
2022-08-19T19:40:00.992Z,97127.81
2022-08-19T19:42:28.875Z,97135.47
2022-08-19T19:44:56.051Z,97129.91
2022-08-19T19:47:23.413Z,97146.34
2022-08-19T19:50:12.783Z,97141.84
2022-08-19T19:52:36.708Z,97140.78
2022-08-19T19:55:04.058Z,97143.66
2022-08-19T19:57:32.118Z,97138.06
2022-08-19T19:59:58.632Z,97136.28
2022-08-19T20:02:25.391Z,97133.97
2022-08-19T20:04:52.054Z,97131.56
2022-08-19T20:07:18.618Z,97140.38
2022-08-19T20:09:59.261Z,97134.72
2022-08-19T20:12:26.896Z,97133.41
2022-08-19T20:14:54.770Z,97139.81
2022-08-19T20:17:21.358Z,97136.66
2022-08-19T20:19:48.025Z,97133.84
2022-08-19T20:22:14.770Z,97133.91
2022-08-19T20:24:41.293Z,97138.28
2022-08-19T20:27:07.873Z,97136.16
2022-08-19T20:29:38.837Z,97138.97
2022-08-19T20:32:10.517Z,97141.03
2022-08-19T20:34:37.669Z,97137.81
2022-08-19T20:37:04.311Z,97144.69
2022-08-19T20:39:31.052Z,97148.25
2022-08-19T20:41:57.631Z,97144.63
2022-08-19T20:44:24.179Z,97145.50
2022-08-19T20:46:54.735Z,97146.31
2022-08-19T20:49:27.243Z,97147.44
2022-08-19T20:51:54.448Z,97149.84
2022-08-19T20:54:21.412Z,97154.28
2022-08-19T20:56:47.934Z,97146.03
2022-08-19T20:59:14.578Z,97147.69
2022-08-19T21:01:41.093Z,97145.69
2022-08-19T21:04:07.638Z,97162.81
2022-08-19T21:06:36.077Z,97161.06
2022-08-19T21:09:02.642Z,97161.13
2022-08-19T21:11:29.196Z,97165.56
2022-08-19T21:13:55.731Z,97169.56
2022-08-19T21:16:22.331Z,97164.59
2022-08-19T21:18:48.863Z,97167.41
2022-08-19T21:21:15.435Z,97159.81
2022-08-19T21:23:44.124Z,97169.47
2022-08-19T21:26:10.887Z,97170.31
2022-08-19T21:28:37.457Z,97171.09
2022-08-19T21:31:06.606Z,97182.31
2022-08-19T21:33:33.470Z,97180.25
2022-08-19T21:36:00.169Z,97179.44
2022-08-19T21:38:27.337Z,97186.47
2022-08-19T21:40:55.316Z,97190.47
2022-08-19T21:43:22.171Z,97190.81
2022-08-19T21:45:49.091Z,97186.97
2022-08-19T21:48:15.761Z,97193.47
2022-08-19T21:50:42.528Z,97200.63
2022-08-19T21:53:09.097Z,97199.91
2022-08-19T21:55:39.120Z,97213.38
2022-08-19T21:58:06.967Z,97212.56
2022-08-19T22:00:33.634Z,97216.00
2022-08-19T22:03:00.571Z,97218.81
2022-08-19T22:05:27.931Z,97209.25
2022-08-19T22:07:56.175Z,97207.63
2022-08-19T22:10:26.206Z,97212.97
2022-08-19T22:12:52.986Z,97213.16
2022-08-19T22:15:21.055Z,97218.69
2022-08-19T22:17:48.151Z,97219.50
2022-08-19T22:20:18.038Z,97215.81
2022-08-19T22:22:46.926Z,97225.66
2022-08-19T22:25:30.064Z,97223.19
2022-08-19T22:28:00.478Z,97230.72
2022-08-19T22:30:33.109Z,97233.00
2022-08-19T22:33:02.480Z,97230.72
2022-08-19T22:35:32.512Z,97234.88
2022-08-19T22:37:59.187Z,97234.53
2022-08-19T22:40:27.237Z,97237.25
2022-08-19T22:42:57.871Z,97238.97
2022-08-19T22:45:24.610Z,97233.56
2022-08-19T22:47:52.520Z,97235.94
2022-08-19T22:50:19.318Z,97246.56
2022-08-19T22:52:52.049Z,97250.72
2022-08-19T22:55:19.230Z,97243.50
2022-08-19T22:57:45.747Z,97243.88
2022-08-19T23:00:13.427Z,97250.72
2022-08-19T23:02:51.751Z,97257.47
2022-08-19T23:05:23.117Z,97259.94
2022-08-19T23:07:53.940Z,97252.09
2022-08-19T23:10:27.257Z,97257.22
2022-08-19T23:12:57.062Z,97249.38
2022-08-19T23:15:26.018Z,97256.69
2022-08-19T23:17:54.138Z,97262.75
2022-08-19T23:20:24.077Z,97257.31
2022-08-19T23:22:50.603Z,97261.81
2022-08-19T23:25:19.831Z,97256.75
2022-08-19T23:27:46.561Z,97258.03
2022-08-19T23:30:13.299Z,97256.88
2022-08-19T23:32:39.881Z,97261.84
2022-08-19T23:35:06.862Z,97261.84
2022-08-19T23:37:34.721Z,97251.47
2022-08-19T23:40:01.346Z,97258.78
2022-08-19T23:42:27.920Z,97256.81
2022-08-19T23:45:00.338Z,97263.81
2022-08-19T23:47:26.903Z,97271.50
2022-08-19T23:49:53.480Z,97271.50
2022-08-19T23:52:20.091Z,97276.56
2022-08-19T23:54:47.977Z,97280.25
2022-08-19T23:57:14.820Z,97278.88
2022-08-19T23:59:43.215Z,97279.59
